Time;durP1;ratioP1;P1;durP2;ratioP2;P2;SDS_P1;SDS_P2;PMS_P1;PMS_P2;Temp;Humidity;BMP_temperature;BMP_pressure;BME280_temperature;BME280_humidity;BME280_pressure;Samples;Min_cycle;Max_cycle;Signal;HPM_P1;HPM_P2
2022/01/08 00:02:10;;;;;;;0.80;0.80;;;0.70;99.90;;;;;;5073701;28;20037;-86
2022/01/08 00:04:36;;;;;;;0.90;0.90;;;0.70;99.90;;;;;;5078925;28;20045;-86
2022/01/08 00:07:01;;;;;;;2.72;1.17;;;0.70;99.90;;;;;;5062330;28;20051;-86
2022/01/08 00:09:27;;;;;;;0.90;0.90;;;0.60;99.90;;;;;;5073446;28;20051;-86
2022/01/08 00:11:53;;;;;;;0.80;0.80;;;0.60;99.90;;;;;;5073423;28;20041;-85
2022/01/08 00:14:21;;;;;;;0.90;0.90;;;0.60;99.90;;;;;;5077222;28;20104;-86
2022/01/08 00:16:47;;;;;;;0.80;0.80;;;0.50;99.90;;;;;;5077499;28;20037;-85
2022/01/08 00:19:13;;;;;;;1.15;1.15;;;0.50;99.90;;;;;;5073390;28;20110;-85
2022/01/08 00:21:41;;;;;;;0.90;0.90;;;0.50;99.90;;;;;;5053315;28;20046;-85
2022/01/08 00:24:07;;;;;;;0.90;0.80;;;0.40;99.90;;;;;;5059065;28;20047;-85
2022/01/08 00:26:33;;;;;;;1.23;1.10;;;0.40;99.90;;;;;;5058615;28;20048;-85
2022/01/08 00:28:59;;;;;;;1.00;1.00;;;0.40;99.90;;;;;;5076714;28;20113;-85
2022/01/08 00:31:24;;;;;;;0.90;0.90;;;0.40;99.90;;;;;;5072419;28;20053;-85
2022/01/08 00:33:51;;;;;;;0.90;0.90;;;0.30;99.90;;;;;;5054144;28;20041;-86
2022/01/08 00:36:17;;;;;;;0.82;0.82;;;0.30;99.90;;;;;;5077325;28;20139;-85
2022/01/08 00:38:43;;;;;;;0.90;0.90;;;0.30;99.90;;;;;;5062525;28;20565;-85
2022/01/08 00:41:09;;;;;;;0.90;0.90;;;0.30;99.90;;;;;;5075922;28;20051;-85
2022/01/08 00:43:34;;;;;;;1.00;1.00;;;0.30;99.90;;;;;;5075561;28;20041;-85
2022/01/08 00:46:00;;;;;;;0.90;0.90;;;0.20;99.90;;;;;;5056360;28;20172;-84
2022/01/08 00:48:25;;;;;;;0.90;0.90;;;0.20;99.90;;;;;;5074429;28;20136;-85
2022/01/08 00:50:52;;;;;;;0.80;0.80;;;0.20;99.90;;;;;;5058631;28;20053;-84
2022/01/08 00:53:19;;;;;;;1.00;1.00;;;0.20;99.90;;;;;;5058792;28;20036;-84
2022/01/08 00:55:44;;;;;;;0.90;0.90;;;0.20;99.90;;;;;;5056448;28;20062;-86
2022/01/08 00:58:10;;;;;;;1.25;1.17;;;0.20;99.90;;;;;;5058726;28;20080;-86
2022/01/08 01:00:36;;;;;;;0.90;0.90;;;0.20;99.90;;;;;;5079861;28;21349;-86
2022/01/08 01:03:01;;;;;;;0.80;0.80;;;0.20;99.90;;;;;;5075053;28;20112;-85
2022/01/08 01:05:27;;;;;;;0.90;0.90;;;0.30;99.90;;;;;;5054118;28;20033;-85
2022/01/08 01:07:54;;;;;;;0.88;0.88;;;0.40;99.90;;;;;;5057897;28;20068;-85
2022/01/08 01:10:19;;;;;;;0.80;0.80;;;0.40;99.90;;;;;;5059880;28;20122;-86
2022/01/08 01:12:46;;;;;;;0.80;0.80;;;0.30;99.90;;;;;;5062497;28;20563;-86
2022/01/08 01:15:13;;;;;;;0.90;0.90;;;0.30;99.90;;;;;;5055020;28;20374;-86
2022/01/08 01:17:39;;;;;;;0.90;0.90;;;0.40;99.90;;;;;;5064034;28;20051;-86
2022/01/08 01:20:07;;;;;;;0.90;0.90;;;0.40;99.90;;;;;;5073075;28;20040;-86
2022/01/08 01:22:44;;;;;;;0.80;0.80;;;0.40;99.90;;;;;;5066124;28;20120;-86
2022/01/08 01:25:14;;;;;;;1.00;1.00;;;0.40;99.90;;;;;;5068159;28;20045;-86
2022/01/08 01:30:15;;;;;;;0.85;0.85;;;0.50;99.90;;;;;;5071684;28;20065;-85
2022/01/08 01:41:17;;;;;;;1.00;1.00;;;0.80;99.90;;;;;;5086581;28;20102;-86
2022/01/08 01:49:12;;;;;;;0.80;0.80;;;0.90;99.90;;;;;;5067251;28;19950;-86
2022/01/08 01:51:37;;;;;;;0.90;0.90;;;0.90;99.90;;;;;;5066932;28;20036;-86
2022/01/08 01:54:03;;;;;;;0.80;0.80;;;0.90;99.90;;;;;;5076157;28;20472;-86
2022/01/08 01:56:29;;;;;;;0.90;0.90;;;0.90;99.90;;;;;;5075336;28;20120;-86
2022/01/08 01:58:54;;;;;;;0.90;0.90;;;0.80;99.90;;;;;;5051412;28;20040;-86
2022/01/08 02:01:20;;;;;;;0.80;0.80;;;0.80;99.90;;;;;;5059956;28;20073;-86
2022/01/08 02:03:46;;;;;;;0.70;0.70;;;0.80;99.90;;;;;;5066608;28;20041;-86
2022/01/08 02:06:11;;;;;;;0.85;0.85;;;0.70;99.90;;;;;;5076286;28;20126;-84
2022/01/08 02:08:38;;;;;;;0.88;0.88;;;0.70;99.90;;;;;;5055870;28;20045;-84
2022/01/08 02:11:05;;;;;;;0.90;0.90;;;0.70;99.90;;;;;;5073348;28;20051;-85
2022/01/08 02:13:32;;;;;;;1.13;1.08;;;0.60;99.90;;;;;;5074525;28;20071;-85
2022/01/08 02:16:00;;;;;;;0.90;0.90;;;0.60;99.90;;;;;;5065459;28;20060;-85
2022/01/08 02:18:26;;;;;;;0.70;0.70;;;0.50;99.90;;;;;;5071955;28;20059;-85
2022/01/08 02:20:53;;;;;;;0.90;0.90;;;0.50;99.90;;;;;;5077937;28;20109;-86
2022/01/08 02:23:18;;;;;;;0.90;0.90;;;0.50;99.90;;;;;;5077283;28;20064;-85
2022/01/08 02:25:44;;;;;;;0.80;0.80;;;0.40;99.90;;;;;;5065677;28;20048;-85
2022/01/08 02:28:10;;;;;;;0.90;0.90;;;0.40;99.90;;;;;;5058516;28;20055;-85
2022/01/08 02:30:35;;;;;;;0.90;0.90;;;0.40;99.90;;;;;;5079367;28;20040;-85
2022/01/08 02:33:01;;;;;;;0.90;0.90;;;0.50;99.90;;;;;;5065296;28;20041;-85
2022/01/08 02:35:27;;;;;;;0.90;0.90;;;0.30;99.90;;;;;;5068086;28;20138;-86
2022/01/08 02:37:53;;;;;;;0.80;0.80;;;0.20;99.90;;;;;;5075599;28;20106;-85
2022/01/08 02:40:20;;;;;;;0.90;0.90;;;0.20;99.90;;;;;;5073616;28;20052;-85
2022/01/08 02:43:00;;;;;;;0.80;0.80;;;0.10;99.90;;;;;;5069607;28;20075;-85
2022/01/08 02:45:26;;;;;;;0.80;0.80;;;0.10;99.90;;;;;;5052477;28;20049;-86
2022/01/08 02:47:53;;;;;;;0.80;0.80;;;0.10;99.90;;;;;;5076464;28;20108;-85
2022/01/08 02:50:20;;;;;;;1.00;1.00;;;0.10;99.90;;;;;;5056186;28;20136;-86
2022/01/08 02:52:48;;;;;;;0.90;0.90;;;0.10;99.90;;;;;;5059855;28;20057;-86
2022/01/08 02:55:16;;;;;;;0.80;0.80;;;0.20;99.90;;;;;;5073279;28;20101;-86
2022/01/08 02:57:41;;;;;;;1.00;1.00;;;0.10;99.90;;;;;;5063448;28;20036;-86
2022/01/08 03:00:09;;;;;;;1.33;1.25;;;0.10;99.90;;;;;;5080178;28;20048;-86
2022/01/08 03:02:39;;;;;;;1.15;1.15;;;0.00;99.90;;;;;;5072330;28;20475;-85
2022/01/08 03:05:07;;;;;;;1.13;1.10;;;0.10;99.90;;;;;;5082320;28;20090;-86
2022/01/08 03:07:33;;;;;;;0.90;0.90;;;-0.10;99.90;;;;;;5077706;28;20072;-86
2022/01/08 03:09:58;;;;;;;0.82;0.82;;;-0.10;99.90;;;;;;5054875;28;20068;-86
2022/01/08 03:12:27;;;;;;;0.90;0.90;;;-0.10;99.90;;;;;;5082439;28;20044;-85
2022/01/08 03:14:55;;;;;;;0.90;0.90;;;-0.10;99.90;;;;;;5060689;28;20032;-86
2022/01/08 03:17:21;;;;;;;1.20;1.10;;;-0.10;99.90;;;;;;5073960;28;20055;-85
2022/01/08 03:19:47;;;;;;;0.80;0.80;;;-0.20;99.90;;;;;;5062824;28;20064;-86
2022/01/08 03:22:12;;;;;;;0.90;0.90;;;-0.20;99.90;;;;;;5071522;28;20113;-85
2022/01/08 03:24:41;;;;;;;0.85;0.85;;;-0.20;99.90;;;;;;5077863;28;20037;-86
2022/01/08 03:27:07;;;;;;;1.08;1.08;;;-0.20;99.90;;;;;;5081238;28;20087;-86
2022/01/08 03:29:32;;;;;;;0.90;0.90;;;-0.20;99.90;;;;;;5077409;28;20041;-86
2022/01/08 03:31:58;;;;;;;3.33;1.92;;;-0.20;99.90;;;;;;5059839;28;20054;-85
2022/01/08 03:34:24;;;;;;;0.90;0.90;;;-0.20;99.90;;;;;;5051154;28;20096;-85
2022/01/08 03:36:49;;;;;;;0.90;0.90;;;-0.30;99.90;;;;;;5058487;28;20052;-85
2022/01/08 03:39:15;;;;;;;2.35;1.55;;;-0.30;99.90;;;;;;5061186;28;20099;-85
2022/01/08 03:41:42;;;;;;;0.90;0.90;;;-0.30;99.90;;;;;;5057527;28;20048;-85
2022/01/08 03:44:08;;;;;;;0.90;0.90;;;-0.30;99.90;;;;;;5057043;28;20033;-86
2022/01/08 03:46:35;;;;;;;1.00;1.00;;;-0.30;99.90;;;;;;5059953;28;20036;-86
2022/01/08 03:51:29;;;;;;;0.90;0.90;;;-0.40;99.90;;;;;;5080072;28;20040;-85
2022/01/08 03:53:56;;;;;;;0.90;0.90;;;-0.40;99.90;;;;;;5081554;28;20082;-86
2022/01/08 03:56:22;;;;;;;0.90;0.90;;;-0.40;99.90;;;;;;5072617;28;20055;-86
2022/01/08 03:58:48;;;;;;;1.10;1.08;;;-0.50;99.90;;;;;;5058588;28;20041;-86
2022/01/08 04:01:13;;;;;;;1.00;1.00;;;-0.40;99.90;;;;;;5070576;28;20045;-86
2022/01/08 04:03:39;;;;;;;0.90;0.90;;;-0.40;99.90;;;;;;5072865;28;20040;-86
2022/01/08 04:06:04;;;;;;;0.90;0.90;;;-0.40;99.90;;;;;;5072400;28;20037;-85
2022/01/08 04:08:30;;;;;;;0.90;0.90;;;-0.40;99.90;;;;;;5075628;28;20145;-85
2022/01/08 04:10:55;;;;;;;0.90;0.90;;;-0.30;99.90;;;;;;5077267;28;20083;-85
2022/01/08 04:13:25;;;;;;;1.30;1.20;;;-0.40;99.90;;;;;;5070909;28;20173;-86
2022/01/08 04:15:56;;;;;;;1.00;1.00;;;-0.30;99.90;;;;;;5071298;28;20052;-85
2022/01/08 04:18:21;;;;;;;0.90;0.90;;;-0.30;99.90;;;;;;5061009;28;20037;-85
2022/01/08 04:21:07;;;;;;;1.00;1.00;;;-0.20;99.90;;;;;;5071365;28;20059;-86
2022/01/08 04:23:33;;;;;;;0.88;0.88;;;-0.30;99.90;;;;;;5059455;28;20090;-86
2022/01/08 04:25:58;;;;;;;1.10;1.10;;;-0.30;99.90;;;;;;5071004;28;20033;-86
2022/01/08 04:28:24;;;;;;;1.02;1.02;;;-0.30;99.90;;;;;;5072237;28;20091;-86
2022/01/08 04:30:50;;;;;;;0.90;0.90;;;-0.20;99.90;;;;;;5060224;28;20052;-84
2022/01/08 04:33:15;;;;;;;0.82;0.82;;;-0.20;99.90;;;;;;5078578;28;20051;-86
2022/01/08 04:35:41;;;;;;;0.90;0.90;;;-0.20;99.90;;;;;;5058918;28;20041;-85
2022/01/08 04:38:07;;;;;;;1.27;1.17;;;-0.20;99.90;;;;;;5064280;28;20111;-85
2022/01/08 04:40:33;;;;;;;0.80;0.80;;;-0.20;99.90;;;;;;5075448;28;20100;-85
2022/01/08 04:43:00;;;;;;;0.80;0.80;;;-0.20;99.90;;;;;;5074987;28;20045;-85
2022/01/08 04:45:29;;;;;;;0.90;0.90;;;-0.10;99.90;;;;;;5065248;28;20047;-84
2022/01/08 04:47:58;;;;;;;0.90;0.90;;;-0.10;99.90;;;;;;5051837;28;20044;-84
2022/01/08 04:50:25;;;;;;;0.90;0.90;;;-0.10;99.90;;;;;;5057665;28;20088;-85
2022/01/08 04:52:50;;;;;;;0.90;0.90;;;0.00;99.90;;;;;;5075706;28;20044;-85
2022/01/08 04:55:17;;;;;;;0.80;0.80;;;0.00;99.90;;;;;;5056857;28;20033;-85
2022/01/08 04:57:42;;;;;;;0.88;0.88;;;0.00;99.90;;;;;;5050115;28;20078;-84
2022/01/08 05:00:08;;;;;;;1.00;1.00;;;0.10;99.90;;;;;;5075053;28;20080;-85
2022/01/08 05:02:34;;;;;;;0.80;0.80;;;0.20;99.90;;;;;;5084848;28;20440;-85
2022/01/08 05:04:59;;;;;;;1.00;1.00;;;0.10;99.90;;;;;;5063141;28;20079;-84
2022/01/08 05:07:25;;;;;;;2.17;1.38;;;0.20;99.90;;;;;;5071396;28;20135;-86
2022/01/08 05:09:50;;;;;;;0.90;0.90;;;0.20;99.90;;;;;;5061729;28;20172;-85
2022/01/08 05:12:16;;;;;;;0.90;0.90;;;0.10;99.90;;;;;;5060602;28;20396;-86
2022/01/08 05:14:44;;;;;;;0.80;0.80;;;0.10;99.90;;;;;;5080907;28;20064;-86
2022/01/08 05:17:10;;;;;;;0.90;0.90;;;0.10;99.90;;;;;;5076175;28;20057;-86
2022/01/08 05:19:44;;;;;;;0.80;0.80;;;0.00;99.90;;;;;;5073600;28;20043;-86
2022/01/08 05:22:18;;;;;;;0.80;0.80;;;0.00;99.90;;;;;;5049343;28;20037;-85
2022/01/08 05:24:44;;;;;;;0.90;0.90;;;0.00;99.90;;;;;;5054576;28;20144;-85
2022/01/08 05:27:15;;;;;;;0.90;0.90;;;0.00;99.90;;;;;;5055054;28;20091;-86
2022/01/08 05:29:41;;;;;;;0.80;0.80;;;0.00;99.90;;;;;;5062994;28;20147;-86
2022/01/08 05:32:07;;;;;;;0.80;0.80;;;-0.10;99.90;;;;;;5060954;28;20101;-86
2022/01/08 05:34:33;;;;;;;0.90;0.90;;;-0.10;99.90;;;;;;5060573;28;20036;-86
2022/01/08 05:36:59;;;;;;;1.00;0.95;;;-0.10;99.90;;;;;;5077594;28;20453;-86
2022/01/08 05:39:25;;;;;;;0.82;0.82;;;-0.10;99.90;;;;;;5077475;28;20063;-85
2022/01/08 05:41:50;;;;;;;0.90;0.90;;;-0.10;99.90;;;;;;5057232;28;20060;-85
2022/01/08 05:44:16;;;;;;;0.85;0.85;;;-0.10;99.90;;;;;;5061444;28;20045;-85
2022/01/08 05:46:44;;;;;;;0.80;0.80;;;-0.20;99.90;;;;;;5055725;28;20033;-85
2022/01/08 05:49:11;;;;;;;0.90;0.90;;;-0.20;99.90;;;;;;5052336;28;20037;-85
2022/01/08 05:51:38;;;;;;;0.80;0.80;;;-0.30;99.90;;;;;;5072939;28;20049;-86
2022/01/08 05:54:04;;;;;;;0.85;0.85;;;-0.30;99.90;;;;;;5053291;28;20064;-86
2022/01/08 05:56:29;;;;;;;1.40;1.30;;;-0.40;99.90;;;;;;5076512;28;20103;-85
2022/01/08 05:58:55;;;;;;;0.90;0.90;;;-0.40;99.90;;;;;;5059982;28;20083;-85
2022/01/08 06:01:20;;;;;;;1.00;1.00;;;-0.40;99.90;;;;;;5076325;28;20052;-85
2022/01/08 06:03:46;;;;;;;0.90;0.90;;;-0.40;99.90;;;;;;5053399;28;20059;-85
2022/01/08 06:06:11;;;;;;;0.80;0.80;;;-0.40;99.90;;;;;;5057951;28;20069;-85
2022/01/08 06:08:37;;;;;;;0.80;0.80;;;-0.50;99.90;;;;;;5071433;28;20045;-84
2022/01/08 06:11:03;;;;;;;0.90;0.90;;;-0.50;99.90;;;;;;5067928;28;20041;-85
2022/01/08 06:13:28;;;;;;;0.90;0.90;;;-0.50;99.90;;;;;;5051610;28;20060;-86
2022/01/08 06:15:54;;;;;;;1.13;1.13;;;-0.50;99.90;;;;;;5069989;28;20044;-86
2022/01/08 06:18:19;;;;;;;0.90;0.90;;;-0.60;99.90;;;;;;5060772;28;20049;-85
2022/01/08 06:20:45;;;;;;;0.90;0.90;;;-0.60;99.90;;;;;;5051642;28;20873;-86
2022/01/08 06:23:10;;;;;;;0.90;0.90;;;-0.60;99.90;;;;;;5071180;28;20051;-86
2022/01/08 06:25:36;;;;;;;0.93;0.93;;;-0.40;99.90;;;;;;5070700;28;20060;-86
2022/01/08 06:28:02;;;;;;;0.85;0.85;;;-0.70;99.90;;;;;;5068414;28;20048;-86
2022/01/08 06:30:27;;;;;;;0.80;0.80;;;-0.70;99.90;;;;;;5071023;28;20067;-86
2022/01/08 06:32:53;;;;;;;0.90;0.90;;;-0.70;99.90;;;;;;5056566;28;20057;-86
2022/01/08 06:35:18;;;;;;;0.90;0.90;;;-0.80;99.90;;;;;;5062513;28;20040;-86
2022/01/08 06:37:44;;;;;;;0.90;0.90;;;-0.80;99.90;;;;;;5067583;28;20138;-84
2022/01/08 06:40:10;;;;;;;0.73;0.73;;;-0.80;99.90;;;;;;5059076;28;20045;-85
2022/01/08 06:42:36;;;;;;;0.70;0.70;;;-0.80;99.90;;;;;;5058895;28;20106;-84
2022/01/08 06:45:02;;;;;;;1.00;1.00;;;-0.60;99.90;;;;;;5057269;28;20036;-84
2022/01/08 06:47:27;;;;;;;0.90;0.90;;;-0.80;99.90;;;;;;5051895;28;20378;-84
2022/01/08 06:49:53;;;;;;;0.88;0.88;;;-0.90;99.90;;;;;;5066166;28;20041;-83
2022/01/08 06:52:18;;;;;;;0.80;0.80;;;-0.90;99.90;;;;;;5077127;28;20239;-84
2022/01/08 06:54:44;;;;;;;1.00;1.00;;;-0.90;99.90;;;;;;5068022;28;20108;-84
2022/01/08 06:57:09;;;;;;;0.70;0.70;;;-0.90;99.90;;;;;;5074648;28;20104;-85
2022/01/08 06:59:35;;;;;;;0.90;0.90;;;-0.90;99.90;;;;;;5073297;28;20460;-85
2022/01/08 07:02:01;;;;;;;0.90;0.90;;;-1.00;99.90;;;;;;5073864;28;20041;-85
2022/01/08 07:04:26;;;;;;;0.90;0.90;;;-1.00;99.90;;;;;;5060880;28;20413;-84
2022/01/08 07:06:52;;;;;;;1.00;1.00;;;-1.00;99.90;;;;;;5052713;28;20049;-84
2022/01/08 07:09:18;;;;;;;0.90;0.90;;;-1.00;99.90;;;;;;5055714;28;20048;-84
2022/01/08 07:11:43;;;;;;;0.90;0.90;;;-1.10;99.90;;;;;;5056537;28;20139;-84
2022/01/08 07:14:09;;;;;;;0.90;0.90;;;-1.10;99.90;;;;;;5061352;28;20597;-84
2022/01/08 07:16:34;;;;;;;1.00;1.00;;;-1.10;99.90;;;;;;5054275;28;20041;-84
2022/01/08 07:19:00;;;;;;;1.10;1.10;;;-1.10;99.90;;;;;;5076252;28;20128;-84
2022/01/08 07:21:25;;;;;;;0.88;0.88;;;-1.10;99.90;;;;;;5072359;28;20073;-84
2022/01/08 07:23:53;;;;;;;0.90;0.90;;;-1.10;99.90;;;;;;5073269;28;20036;-84
2022/01/08 07:26:18;;;;;;;1.00;1.00;;;-1.00;99.90;;;;;;5071477;28;20079;-83
2022/01/08 07:28:44;;;;;;;1.00;1.00;;;-1.00;99.90;;;;;;5061578;28;20041;-84
2022/01/08 07:31:09;;;;;;;0.90;0.90;;;-0.80;99.90;;;;;;5061288;28;20458;-84
2022/01/08 07:33:35;;;;;;;1.00;1.00;;;-1.00;99.90;;;;;;5076421;28;20037;-84
2022/01/08 07:36:01;;;;;;;0.90;0.90;;;-0.80;99.90;;;;;;5067798;28;20041;-83
2022/01/08 07:38:26;;;;;;;1.00;1.00;;;-1.00;99.90;;;;;;5061278;28;20045;-84
2022/01/08 07:40:52;;;;;;;0.90;0.90;;;-1.00;99.90;;;;;;5082734;28;20554;-84
2022/01/08 07:43:19;;;;;;;0.90;0.90;;;-1.00;99.90;;;;;;5059571;28;20064;-84
2022/01/08 07:45:44;;;;;;;0.90;0.90;;;-0.80;99.90;;;;;;5080281;28;20159;-84
2022/01/08 07:48:10;;;;;;;0.95;0.95;;;-0.70;99.90;;;;;;5082391;28;20067;-84
2022/01/08 07:50:35;;;;;;;0.90;0.90;;;-1.00;99.90;;;;;;5061314;28;20041;-83
2022/01/08 07:53:01;;;;;;;1.00;1.00;;;-1.00;99.90;;;;;;5075061;28;20052;-83
2022/01/08 07:55:26;;;;;;;0.90;0.90;;;-1.00;99.90;;;;;;5076927;28;20135;-84
2022/01/08 07:57:52;;;;;;;0.90;0.90;;;-0.90;99.90;;;;;;5064347;28;20075;-84
2022/01/08 08:00:17;;;;;;;0.80;0.80;;;-0.80;99.90;;;;;;5080156;28;20036;-84
2022/01/08 08:02:43;;;;;;;1.00;1.00;;;-0.70;99.90;;;;;;5077132;28;20049;-85
2022/01/08 08:05:09;;;;;;;0.90;0.90;;;-1.00;99.90;;;;;;5074516;28;20068;-85
2022/01/08 08:07:38;;;;;;;1.00;1.00;;;-0.90;99.90;;;;;;5066596;28;20538;-84
2022/01/08 08:10:17;;;;;;;0.90;0.90;;;-0.90;99.90;;;;;;5064410;28;20048;-84
2022/01/08 08:12:44;;;;;;;0.90;0.90;;;-0.90;99.90;;;;;;5072090;28;20458;-85
2022/01/08 08:15:15;;;;;;;0.90;0.90;;;-0.90;99.90;;;;;;5073237;28;20055;-84
2022/01/08 08:17:41;;;;;;;0.70;0.70;;;-0.90;99.90;;;;;;5060921;28;20111;-85
2022/01/08 08:20:07;;;;;;;1.00;1.00;;;-0.90;99.90;;;;;;5078993;28;20061;-84
2022/01/08 08:22:33;;;;;;;0.82;0.82;;;-0.80;99.90;;;;;;5073041;28;20129;-84
2022/01/08 08:24:59;;;;;;;0.90;0.90;;;-0.90;99.90;;;;;;5078324;28;20069;-84
2022/01/08 08:27:24;;;;;;;0.90;0.90;;;-0.80;99.90;;;;;;5071588;28;20062;-84
2022/01/08 08:29:50;;;;;;;0.90;0.90;;;-0.80;99.90;;;;;;5070706;28;20049;-85
2022/01/08 08:32:15;;;;;;;1.50;1.40;;;-0.80;99.90;;;;;;5075422;28;20044;-85
2022/01/08 08:34:41;;;;;;;0.80;0.80;;;-0.70;99.90;;;;;;5078117;28;20044;-85
2022/01/08 08:37:07;;;;;;;0.90;0.90;;;-0.60;99.90;;;;;;5073025;28;20063;-85
2022/01/08 08:39:32;;;;;;;0.90;0.90;;;-0.60;99.90;;;;;;5056456;28;20041;-85
2022/01/08 08:41:58;;;;;;;1.00;1.00;;;-0.50;99.90;;;;;;5072676;28;20094;-85
2022/01/08 08:44:23;;;;;;;0.80;0.80;;;-0.50;99.90;;;;;;5078388;28;20477;-84
2022/01/08 08:46:49;;;;;;;0.90;0.90;;;-0.40;99.90;;;;;;5075095;28;20052;-85
2022/01/08 08:49:15;;;;;;;0.93;0.93;;;-0.40;99.90;;;;;;5073285;28;20101;-85
2022/01/08 08:51:40;;;;;;;0.90;0.90;;;-0.30;99.90;;;;;;5077085;28;20365;-85
2022/01/08 08:54:06;;;;;;;1.10;1.10;;;-0.20;99.90;;;;;;5067764;28;20086;-85
2022/01/08 08:56:32;;;;;;;0.90;0.90;;;-0.20;99.90;;;;;;5078006;28;20071;-84
2022/01/08 08:58:57;;;;;;;1.10;1.10;;;-0.20;99.90;;;;;;5080106;28;20051;-84
2022/01/08 09:01:24;;;;;;;0.90;0.90;;;-0.20;99.90;;;;;;5060386;28;20143;-85
2022/01/08 09:03:49;;;;;;;0.82;0.82;;;-0.10;99.90;;;;;;5069202;28;20049;-85
2022/01/08 09:06:15;;;;;;;0.90;0.90;;;-0.10;99.90;;;;;;5075944;28;20117;-85
2022/01/08 09:08:40;;;;;;;0.90;0.90;;;-0.10;99.90;;;;;;5053402;28;20060;-85
2022/01/08 09:11:06;;;;;;;0.80;0.80;;;-0.10;99.90;;;;;;5077501;28;20110;-85
2022/01/08 09:13:31;;;;;;;1.25;1.15;;;0.00;99.90;;;;;;5071056;28;20041;-85
2022/01/08 09:15:57;;;;;;;0.90;0.90;;;0.10;99.90;;;;;;5058274;28;20527;-84
2022/01/08 09:18:23;;;;;;;0.90;0.90;;;0.10;99.90;;;;;;5071271;28;20051;-85
2022/01/08 09:20:49;;;;;;;1.00;1.00;;;0.20;99.90;;;;;;5074907;28;20049;-82
2022/01/08 09:23:14;;;;;;;1.00;1.00;;;0.20;99.90;;;;;;5087135;28;20045;-84
2022/01/08 09:25:40;;;;;;;1.13;0.95;;;0.30;99.90;;;;;;5073390;28;20120;-83
2022/01/08 09:28:06;;;;;;;0.80;0.80;;;0.40;99.90;;;;;;5074081;28;20044;-83
2022/01/08 09:30:31;;;;;;;0.80;0.80;;;0.40;99.90;;;;;;5071932;28;20122;-83
2022/01/08 09:32:57;;;;;;;0.90;0.90;;;0.50;99.90;;;;;;5071681;28;20051;-83
2022/01/08 09:35:25;;;;;;;0.80;0.80;;;0.50;99.90;;;;;;5076329;28;20105;-83
2022/01/08 09:37:52;;;;;;;0.80;0.80;;;0.60;99.90;;;;;;5078453;28;20108;-84
2022/01/08 09:40:19;;;;;;;0.90;0.90;;;0.70;99.90;;;;;;5060326;28;20079;-83
2022/01/08 09:42:45;;;;;;;1.00;1.00;;;0.70;99.90;;;;;;5072248;28;20075;-84
2022/01/08 09:45:11;;;;;;;0.80;0.80;;;0.80;99.90;;;;;;5057424;28;20037;-84
2022/01/08 09:47:37;;;;;;;0.93;0.93;;;0.80;99.90;;;;;;5072956;28;20092;-84
2022/01/08 09:50:04;;;;;;;0.80;0.80;;;0.80;99.90;;;;;;5059341;28;20544;-84
2022/01/08 09:52:31;;;;;;;0.90;0.90;;;0.80;99.90;;;;;;5075968;28;20041;-84
2022/01/08 09:54:57;;;;;;;0.90;0.90;;;0.80;99.90;;;;;;5061658;28;20044;-84
2022/01/08 09:57:23;;;;;;;0.90;0.90;;;0.90;99.90;;;;;;5076779;28;20044;-84
2022/01/08 09:59:48;;;;;;;0.80;0.80;;;0.90;99.90;;;;;;5053192;28;20128;-84
2022/01/08 10:02:20;;;;;;;1.00;1.00;;;0.90;99.90;;;;;;5060820;28;20037;-84
2022/01/08 10:04:46;;;;;;;0.90;0.90;;;1.00;99.90;;;;;;5056913;28;20086;-83
2022/01/08 10:07:26;;;;;;;0.90;0.90;;;1.10;99.90;;;;;;5074057;28;20040;-84
2022/01/08 10:10:17;;;;;;;0.90;0.90;;;1.10;99.90;;;;;;5072333;28;20127;-84
2022/01/08 10:12:53;;;;;;;1.55;1.45;;;1.20;99.90;;;;;;5065777;28;20435;-84
2022/01/08 10:18:30;;;;;;;0.90;0.90;;;1.20;99.90;;;;;;5075093;28;20114;-84
2022/01/08 10:20:57;;;;;;;0.88;0.88;;;1.20;99.90;;;;;;5055855;28;20056;-83
2022/01/08 10:23:33;;;;;;;1.60;1.50;;;1.30;99.90;;;;;;5059427;28;20036;-83
2022/01/08 10:26:02;;;;;;;0.80;0.80;;;1.30;99.90;;;;;;5059956;28;20060;-84
2022/01/08 10:28:40;;;;;;;0.80;0.80;;;1.30;99.90;;;;;;5060677;28;20041;-84
2022/01/08 10:31:26;;;;;;;0.90;0.90;;;1.30;99.90;;;;;;5076660;28;20041;-83
2022/01/08 10:34:03;;;;;;;0.90;0.90;;;1.30;99.90;;;;;;5074782;28;20096;-84
2022/01/08 10:36:35;;;;;;;0.90;0.90;;;1.40;99.90;;;;;;5075847;28;20445;-84
2022/01/08 10:39:05;;;;;;;0.90;0.90;;;1.40;99.90;;;;;;5076547;28;20112;-84
2022/01/08 10:41:31;;;;;;;0.90;0.90;;;1.50;99.90;;;;;;5074012;28;20041;-84
2022/01/08 10:44:18;;;;;;;0.80;0.80;;;1.50;99.90;;;;;;5046870;28;20098;-83
2022/01/08 10:47:02;;;;;;;0.85;0.85;;;1.50;99.90;;;;;;5047944;28;20045;-84
2022/01/08 10:49:37;;;;;;;0.90;0.90;;;1.50;99.90;;;;;;5051108;28;20409;-85
2022/01/08 10:52:07;;;;;;;0.75;0.75;;;1.60;99.90;;;;;;5066840;28;20044;-84
2022/01/08 10:54:34;;;;;;;0.80;0.80;;;1.60;99.90;;;;;;5045200;28;20076;-84
2022/01/08 10:57:03;;;;;;;0.80;0.80;;;1.60;99.90;;;;;;5062914;28;20033;-84
2022/01/08 10:59:30;;;;;;;1.00;1.00;;;1.60;99.90;;;;;;5051427;28;20044;-85
2022/01/08 11:02:07;;;;;;;0.80;0.80;;;1.70;99.90;;;;;;5065679;28;20041;-85
2022/01/08 11:04:36;;;;;;;0.90;0.90;;;1.70;99.90;;;;;;5053713;28;20095;-85
2022/01/08 11:07:18;;;;;;;1.00;1.00;;;1.70;99.90;;;;;;5059268;28;20063;-85
2022/01/08 11:09:45;;;;;;;0.88;0.88;;;1.70;99.90;;;;;;5050028;28;20051;-84
2022/01/08 11:12:17;;;;;;;0.80;0.80;;;1.70;99.90;;;;;;5074412;28;20037;-85
2022/01/08 11:17:29;;;;;;;0.80;0.80;;;1.70;99.90;;;;;;5078142;28;20048;-85
2022/01/08 11:20:01;;;;;;;0.90;0.90;;;1.80;99.90;;;;;;5066273;28;20052;-85
2022/01/08 11:22:29;;;;;;;0.98;0.98;;;1.80;99.90;;;;;;5059927;28;20037;-85
2022/01/08 11:25:00;;;;;;;1.85;1.75;;;1.90;99.90;;;;;;5058635;28;20052;-85
2022/01/08 11:27:40;;;;;;;1.02;1.02;;;1.90;99.90;;;;;;5071127;28;20061;-85
2022/01/08 11:30:09;;;;;;;2.90;1.45;;;1.90;99.90;;;;;;5076661;28;20100;-85
2022/01/08 11:32:35;;;;;;;0.98;0.98;;;2.00;99.90;;;;;;5061434;28;20068;-85
2022/01/08 11:35:03;;;;;;;0.80;0.80;;;2.00;99.90;;;;;;5055699;28;20147;-84
2022/01/08 11:37:30;;;;;;;0.80;0.80;;;2.10;99.90;;;;;;5077235;28;20059;-85
2022/01/08 11:39:57;;;;;;;0.80;0.80;;;2.20;99.90;;;;;;5082030;28;20060;-83
2022/01/08 11:42:23;;;;;;;8.27;1.70;;;2.20;99.90;;;;;;5083438;28;20063;-84
2022/01/08 11:44:52;;;;;;;1.02;0.90;;;2.30;99.90;;;;;;5085111;28;20045;-84
2022/01/08 11:47:20;;;;;;;1.00;1.00;;;2.30;99.90;;;;;;5072098;28;20045;-85
2022/01/08 11:49:47;;;;;;;1.10;1.10;;;2.40;99.90;;;;;;5063675;28;20041;-85
2022/01/08 11:52:21;;;;;;;0.98;0.98;;;2.40;99.90;;;;;;5069616;28;20075;-85
2022/01/08 11:54:48;;;;;;;0.80;0.80;;;2.40;99.90;;;;;;5070850;28;20150;-84
2022/01/08 11:57:17;;;;;;;0.80;0.80;;;2.50;99.90;;;;;;5079440;28;20083;-84
2022/01/08 11:59:43;;;;;;;0.80;0.80;;;2.50;99.90;;;;;;5074982;28;20086;-85
2022/01/08 12:02:11;;;;;;;0.80;0.80;;;2.60;99.90;;;;;;5069050;28;20044;-84
2022/01/08 12:04:37;;;;;;;0.80;0.80;;;2.60;99.90;;;;;;5062674;28;20036;-83
2022/01/08 12:07:34;;;;;;;1.10;1.10;;;2.70;99.90;;;;;;5078832;28;20254;-83
2022/01/08 12:10:13;;;;;;;1.65;1.27;;;2.70;99.90;;;;;;5056751;28;20056;-83
2022/01/08 12:13:08;;;;;;;1.00;1.00;;;2.70;99.90;;;;;;5071121;28;20458;-84
2022/01/08 12:15:39;;;;;;;9.23;2.72;;;2.70;99.90;;;;;;5041733;28;20131;-84
2022/01/08 12:18:06;;;;;;;1.50;1.35;;;2.70;99.90;;;;;;5078637;28;20052;-85
2022/01/08 12:20:52;;;;;;;1.13;1.08;;;2.70;99.90;;;;;;5061505;28;20127;-84
2022/01/08 12:23:33;;;;;;;0.80;0.80;;;2.80;99.90;;;;;;5077756;28;20044;-84
2022/01/08 12:26:01;;;;;;;1.55;1.45;;;2.80;99.90;;;;;;5063853;28;20044;-85
2022/01/08 12:28:46;;;;;;;2.65;1.92;;;2.80;99.90;;;;;;5072410;28;20041;-85
2022/01/08 12:31:26;;;;;;;0.80;0.80;;;2.80;99.90;;;;;;5066838;28;20036;-86
2022/01/08 12:34:25;;;;;;;0.93;0.93;;;2.80;99.90;;;;;;5069247;28;20041;-85
2022/01/08 12:36:52;;;;;;;1.48;1.38;;;2.90;99.90;;;;;;5063320;28;20048;-86
2022/01/08 12:39:22;;;;;;;0.90;0.90;;;2.80;99.90;;;;;;5070934;28;20056;-83
2022/01/08 12:41:47;;;;;;;2.13;2.00;;;3.00;99.90;;;;;;5076887;28;20037;-83
2022/01/08 12:44:31;;;;;;;0.90;0.90;;;2.90;99.90;;;;;;5070100;28;20097;-84
2022/01/08 12:46:56;;;;;;;0.90;0.90;;;2.90;99.90;;;;;;5073106;28;20060;-83
2022/01/08 12:49:22;;;;;;;0.80;0.80;;;2.90;99.90;;;;;;5070977;28;20033;-84
2022/01/08 12:51:55;;;;;;;0.80;0.80;;;2.90;99.90;;;;;;5074960;28;20048;-84
2022/01/08 12:54:22;;;;;;;0.98;0.98;;;2.90;99.90;;;;;;5046030;28;20032;-84
2022/01/08 12:56:52;;;;;;;1.30;1.17;;;2.90;99.90;;;;;;5068530;28;20049;-84
2022/01/08 12:59:19;;;;;;;1.17;1.08;;;2.90;99.90;;;;;;5084452;28;20041;-84
2022/01/08 13:01:49;;;;;;;1.08;1.08;;;3.00;99.90;;;;;;5049561;28;20041;-84
2022/01/08 13:04:17;;;;;;;0.90;0.90;;;2.90;99.90;;;;;;5071607;28;20033;-84
2022/01/08 13:06:44;;;;;;;0.82;0.82;;;3.00;99.90;;;;;;5070511;28;20079;-84
2022/01/08 13:09:11;;;;;;;1.50;1.40;;;3.00;99.90;;;;;;5063025;28;20085;-84
2022/01/08 13:11:38;;;;;;;0.80;0.80;;;3.00;99.90;;;;;;5074061;28;20071;-84
2022/01/08 13:14:19;;;;;;;0.95;0.95;;;3.00;99.90;;;;;;5056925;28;20464;-84
2022/01/08 13:16:46;;;;;;;0.90;0.90;;;3.00;99.90;;;;;;5057699;28;20528;-84
2022/01/08 13:19:24;;;;;;;0.98;0.98;;;3.10;99.90;;;;;;5072435;28;20105;-83
2022/01/08 13:21:51;;;;;;;0.90;0.90;;;3.10;99.90;;;;;;5077123;28;20047;-84